createdAt,value
2018-09-27T00:00:45.055Z,5.00
2018-09-27T00:03:13.194Z,5.00
2018-09-27T00:05:41.311Z,5.00
2018-09-27T00:08:09.470Z,4.90
2018-09-27T00:10:37.617Z,5.00
2018-09-27T00:13:05.787Z,5.00
2018-09-27T00:15:34.070Z,4.80
2018-09-27T00:18:02.206Z,4.90
2018-09-27T00:20:30.420Z,5.00
2018-09-27T00:22:58.580Z,4.90
2018-09-27T00:25:26.738Z,4.90
2018-09-27T00:27:54.894Z,4.90
2018-09-27T00:30:23.068Z,4.70
2018-09-27T00:32:51.203Z,4.60
2018-09-27T00:35:19.335Z,4.70
2018-09-27T00:37:47.479Z,4.80
2018-09-27T00:40:15.615Z,4.70
2018-09-27T00:42:43.759Z,4.70
2018-09-27T00:45:11.935Z,4.60
2018-09-27T00:47:40.072Z,4.50
2018-09-27T00:50:08.609Z,4.50
2018-09-27T00:52:36.800Z,4.50
2018-09-27T00:55:04.969Z,4.50
2018-09-27T00:57:33.129Z,4.60
2018-09-27T01:00:01.303Z,4.60
2018-09-27T01:02:29.454Z,4.50
2018-09-27T01:04:57.594Z,4.40
2018-09-27T01:07:25.755Z,4.50
2018-09-27T01:09:53.955Z,4.40
2018-09-27T01:12:22.110Z,4.40
2018-09-27T01:14:50.298Z,4.30
2018-09-27T01:17:18.463Z,4.30
2018-09-27T01:19:46.674Z,4.30
2018-09-27T01:22:14.835Z,4.50
2018-09-27T01:24:42.980Z,4.30
2018-09-27T01:27:11.146Z,4.20
2018-09-27T01:29:39.315Z,4.10
2018-09-27T01:32:07.462Z,4.10
2018-09-27T01:34:35.619Z,4.00
2018-09-27T01:37:03.794Z,4.00
2018-09-27T01:39:31.927Z,4.00
2018-09-27T01:42:00.060Z,4.00
2018-09-27T01:44:28.195Z,3.90
2018-09-27T01:46:56.394Z,4.10
2018-09-27T01:49:24.664Z,4.00
2018-09-27T01:51:52.876Z,3.90
2018-09-27T01:54:21.052Z,4.00
2018-09-27T01:56:49.207Z,4.20
2018-09-27T01:59:17.379Z,4.00
2018-09-27T02:01:45.551Z,3.90
2018-09-27T02:04:13.715Z,3.90
2018-09-27T02:06:41.862Z,3.90
2018-09-27T02:09:10.383Z,3.90
2018-09-27T02:11:39.238Z,3.90
2018-09-27T02:14:07.462Z,3.90
2018-09-27T02:16:35.660Z,4.00
2018-09-27T02:19:03.791Z,4.10
2018-09-27T02:21:31.918Z,4.10
2018-09-27T02:24:00.132Z,3.90
2018-09-27T02:26:28.298Z,3.70
2018-09-27T02:28:56.435Z,3.80
2018-09-27T02:31:24.594Z,3.90
2018-09-27T02:33:52.790Z,3.70
2018-09-27T02:36:20.928Z,3.60
2018-09-27T02:38:49.082Z,3.60
2018-09-27T02:41:17.255Z,3.60
2018-09-27T02:43:45.394Z,3.70
2018-09-27T02:46:13.530Z,3.60
2018-09-27T02:48:41.679Z,3.50
2018-09-27T02:51:10.247Z,3.50
2018-09-27T02:53:38.898Z,3.50
2018-09-27T02:56:07.079Z,3.40
2018-09-27T02:58:35.308Z,3.50
2018-09-27T03:01:03.455Z,3.50
2018-09-27T03:03:31.605Z,3.60
2018-09-27T03:05:59.757Z,3.50
2018-09-27T03:08:27.925Z,3.40
2018-09-27T03:10:56.080Z,3.50
2018-09-27T03:13:24.280Z,3.50
2018-09-27T03:15:52.482Z,3.70
2018-09-27T03:18:20.937Z,3.80
2018-09-27T03:20:49.117Z,3.60
2018-09-27T03:23:17.272Z,3.50
2018-09-27T03:25:45.440Z,3.50
2018-09-27T03:28:13.575Z,3.50
2018-09-27T03:30:41.695Z,3.50
2018-09-27T03:33:09.839Z,3.30
2018-09-27T03:35:37.971Z,3.20
2018-09-27T03:38:06.134Z,3.20
2018-09-27T03:40:34.365Z,3.30
2018-09-27T03:43:02.440Z,3.30
2018-09-27T03:45:30.615Z,3.30
2018-09-27T03:47:58.734Z,3.40
2018-09-27T03:50:26.876Z,3.20
2018-09-27T03:52:55.024Z,3.20
2018-09-27T03:55:23.152Z,3.10
2018-09-27T03:57:51.291Z,3.10
2018-09-27T04:00:20.488Z,3.00
2018-09-27T04:02:48.767Z,3.10
2018-09-27T04:05:17.655Z,3.00
2018-09-27T04:07:46.196Z,2.90
2018-09-27T04:10:14.880Z,2.90
2018-09-27T04:12:43.977Z,2.90
2018-09-27T04:15:11.979Z,2.80
2018-09-27T04:17:40.164Z,2.80
2018-09-27T04:20:08.359Z,2.90
2018-09-27T04:22:36.530Z,2.90
2018-09-27T04:25:04.767Z,2.90
2018-09-27T04:27:32.910Z,2.70
2018-09-27T04:30:01.093Z,2.70
2018-09-27T04:32:29.338Z,2.80
2018-09-27T04:34:57.473Z,2.80
2018-09-27T04:37:25.619Z,2.80
2018-09-27T04:39:53.826Z,2.90
2018-09-27T04:42:21.950Z,3.00
2018-09-27T04:44:50.095Z,3.00
2018-09-27T04:47:18.238Z,3.10
2018-09-27T04:49:46.387Z,3.00
2018-09-27T04:52:14.527Z,2.90
2018-09-27T04:54:42.662Z,2.90
2018-09-27T04:57:10.815Z,2.80
2018-09-27T04:59:38.954Z,2.70
2018-09-27T05:02:07.119Z,2.90
2018-09-27T05:04:35.335Z,2.80
2018-09-27T05:07:03.486Z,2.70
2018-09-27T05:09:31.680Z,2.70
2018-09-27T05:11:59.770Z,2.70
2018-09-27T05:14:27.916Z,2.70
2018-09-27T05:16:56.247Z,2.70
2018-09-27T05:19:24.388Z,2.60
2018-09-27T05:21:52.520Z,2.70
2018-09-27T05:24:20.684Z,2.90
2018-09-27T05:26:48.868Z,2.80
2018-09-27T05:29:17.080Z,2.70
2018-09-27T05:31:45.262Z,2.70
2018-09-27T05:34:13.390Z,2.70
2018-09-27T05:36:41.524Z,2.70
2018-09-27T05:39:10.783Z,2.70
2018-09-27T05:41:39.011Z,2.70
2018-09-27T05:44:07.558Z,2.70
2018-09-27T05:46:35.705Z,2.90
2018-09-27T05:49:03.822Z,2.80
2018-09-27T05:51:31.951Z,2.70
2018-09-27T05:54:00.084Z,2.90
2018-09-27T05:56:28.212Z,3.00
2018-09-27T05:58:56.347Z,3.10
2018-09-27T06:01:24.495Z,3.20
2018-09-27T06:03:52.638Z,3.30
2018-09-27T06:06:20.775Z,3.30
2018-09-27T06:08:48.973Z,3.20
2018-09-27T06:11:17.145Z,3.10
2018-09-27T06:13:45.270Z,3.20
2018-09-27T06:16:13.404Z,3.40
2018-09-27T06:18:41.558Z,3.50
2018-09-27T06:21:09.687Z,3.60
2018-09-27T06:23:37.900Z,3.80
2018-09-27T06:26:06.219Z,3.90
2018-09-27T06:28:34.347Z,3.90
2018-09-27T06:31:02.477Z,4.10
2018-09-27T06:33:30.654Z,4.30
2018-09-27T06:35:58.739Z,4.50
2018-09-27T06:38:26.949Z,4.60
2018-09-27T06:40:55.024Z,4.80
2018-09-27T06:43:23.205Z,4.90
2018-09-27T06:45:51.492Z,5.20
2018-09-27T06:48:19.657Z,5.20
2018-09-27T06:50:47.835Z,5.20
2018-09-27T06:53:15.976Z,5.20
2018-09-27T06:55:44.206Z,5.10
2018-09-27T06:58:12.283Z,5.60
2018-09-27T07:00:40.444Z,5.90
2018-09-27T07:03:08.599Z,6.60
2018-09-27T07:05:36.768Z,7.40
2018-09-27T07:08:04.965Z,8.60
2018-09-27T07:10:33.127Z,9.60
2018-09-27T07:13:01.375Z,10.60
2018-09-27T07:15:29.635Z,11.90
2018-09-27T07:17:57.726Z,12.70
2018-09-27T07:20:25.941Z,12.90
2018-09-27T07:22:54.051Z,13.40
2018-09-27T07:25:22.212Z,13.80
2018-09-27T07:27:50.497Z,14.10
2018-09-27T07:30:18.662Z,14.30
2018-09-27T07:32:46.839Z,14.50
2018-09-27T07:35:14.983Z,14.70
2018-09-27T07:37:43.133Z,15.10
2018-09-27T07:40:11.274Z,15.30
2018-09-27T07:42:39.431Z,15.70
2018-09-27T07:45:07.594Z,15.90
2018-09-27T07:47:35.740Z,16.20
2018-09-27T07:50:03.882Z,16.30
2018-09-27T07:52:32.096Z,16.40
2018-09-27T07:55:00.284Z,17.10
2018-09-27T07:57:28.447Z,17.90
2018-09-27T07:59:56.603Z,17.90
2018-09-27T08:02:24.893Z,18.00
2018-09-27T08:04:53.014Z,18.30
2018-09-27T08:07:21.172Z,19.00
2018-09-27T08:09:49.415Z,19.40
2018-09-27T08:12:17.586Z,20.00
2018-09-27T08:14:45.775Z,20.20
2018-09-27T08:17:13.908Z,20.10
2018-09-27T08:19:42.012Z,20.20
2018-09-27T08:22:10.231Z,20.00
2018-09-27T08:24:39.447Z,19.60
2018-09-27T08:27:07.611Z,20.10
2018-09-27T08:29:35.779Z,20.60
2018-09-27T08:32:03.931Z,20.70
2018-09-27T08:34:32.080Z,20.50
2018-09-27T08:37:00.289Z,21.20
2018-09-27T08:39:28.471Z,21.80
2018-09-27T08:41:56.664Z,22.20
2018-09-27T08:44:24.864Z,22.80
2018-09-27T08:46:52.955Z,22.60
2018-09-27T08:49:21.178Z,22.80
2018-09-27T08:51:49.332Z,22.80
2018-09-27T08:54:17.482Z,23.60
2018-09-27T08:56:45.624Z,23.90
2018-09-27T08:59:13.768Z,24.10
2018-09-27T09:01:41.951Z,24.40
2018-09-27T09:04:10.048Z,24.10
2018-09-27T09:06:38.203Z,23.60
2018-09-27T09:09:08.695Z,23.80
2018-09-27T09:11:36.863Z,23.40
2018-09-27T09:14:05.016Z,24.60
2018-09-27T09:16:33.200Z,25.50
2018-09-27T09:19:01.492Z,25.60
2018-09-27T09:21:29.722Z,25.40
2018-09-27T09:23:57.835Z,25.90
2018-09-27T09:26:25.984Z,25.50
2018-09-27T09:28:54.164Z,25.30
2018-09-27T09:31:22.311Z,25.20
2018-09-27T09:33:50.500Z,25.40
2018-09-27T09:36:18.663Z,24.80
2018-09-27T09:38:46.861Z,25.30
2018-09-27T09:41:15.037Z,26.20
2018-09-27T09:43:43.198Z,25.30
2018-09-27T09:46:11.399Z,26.00
2018-09-27T09:48:39.566Z,25.40
2018-09-27T09:51:07.719Z,25.20
2018-09-27T09:53:35.859Z,26.10
2018-09-27T09:56:04.503Z,26.00
2018-09-27T09:58:32.666Z,25.90
2018-09-27T10:01:00.892Z,26.40
2018-09-27T10:03:29.042Z,25.80
2018-09-27T10:05:57.219Z,26.80
2018-09-27T10:08:25.368Z,27.40
2018-09-27T10:10:53.502Z,27.40
2018-09-27T10:13:21.646Z,27.50
2018-09-27T10:15:49.814Z,26.80
2018-09-27T10:18:18.356Z,27.50
2018-09-27T10:20:46.505Z,26.20
2018-09-27T10:23:14.676Z,27.50
2018-09-27T10:25:42.808Z,27.90
2018-09-27T10:28:10.964Z,27.80
2018-09-27T10:30:39.107Z,26.70
2018-09-27T10:33:07.281Z,26.90
2018-09-27T10:35:35.419Z,26.80
2018-09-27T10:38:03.781Z,27.00
2018-09-27T10:40:31.915Z,27.20
2018-09-27T10:43:00.053Z,27.80
2018-09-27T10:45:28.207Z,28.00
2018-09-27T10:47:56.369Z,27.60
2018-09-27T10:50:24.519Z,27.60
2018-09-27T10:52:52.691Z,26.40
2018-09-27T10:55:20.855Z,26.40
2018-09-27T10:57:49.018Z,27.00
2018-09-27T11:00:18.446Z,26.90
2018-09-27T11:02:47.414Z,27.30
2018-09-27T11:05:15.555Z,27.40
2018-09-27T11:07:43.799Z,29.00
2018-09-27T11:10:12.003Z,28.50
2018-09-27T11:12:40.308Z,28.90
2018-09-27T11:15:08.527Z,28.80
2018-09-27T11:17:36.682Z,27.70
2018-09-27T11:20:04.830Z,27.10
2018-09-27T11:22:32.958Z,27.40
2018-09-27T11:25:01.107Z,28.40
2018-09-27T11:27:29.311Z,29.10
2018-09-27T11:30:02.884Z,30.10
2018-09-27T11:32:38.243Z,29.00
2018-09-27T11:35:06.919Z,28.60
2018-09-27T11:37:35.096Z,28.00
2018-09-27T11:40:03.283Z,28.80
2018-09-27T11:42:31.493Z,28.70
2018-09-27T11:44:59.593Z,27.80
2018-09-27T11:47:27.719Z,27.60
2018-09-27T11:49:55.938Z,27.90
2018-09-27T11:52:24.048Z,28.20
2018-09-27T11:54:52.195Z,27.80
2018-09-27T11:57:20.347Z,27.00
2018-09-27T11:59:48.495Z,28.00
2018-09-27T12:02:16.639Z,28.00
2018-09-27T12:04:44.835Z,28.10
2018-09-27T12:07:13.247Z,28.10
2018-09-27T12:09:41.499Z,28.30
2018-09-27T12:12:09.687Z,28.70
2018-09-27T12:14:37.853Z,28.20
2018-09-27T12:17:06.062Z,27.20
2018-09-27T12:19:34.276Z,26.30
2018-09-27T12:22:02.347Z,26.50
2018-09-27T12:24:30.611Z,27.00
2018-09-27T12:26:58.767Z,26.70
2018-09-27T12:29:26.914Z,26.60
2018-09-27T12:31:55.048Z,27.40
2018-09-27T12:34:23.455Z,27.60
2018-09-27T12:36:51.595Z,27.40
2018-09-27T12:39:19.747Z,27.90
2018-09-27T12:41:47.946Z,27.90
2018-09-27T12:44:16.059Z,27.70
2018-09-27T12:46:44.245Z,27.40
2018-09-27T12:49:12.339Z,26.90
2018-09-27T12:51:40.551Z,26.70
2018-09-27T12:54:08.599Z,26.70
2018-09-27T12:56:36.750Z,26.90
2018-09-27T12:59:04.883Z,27.40
2018-09-27T13:01:33.119Z,26.40
2018-09-27T13:04:01.195Z,26.30
2018-09-27T13:06:29.302Z,26.70
2018-09-27T13:08:57.460Z,26.40
2018-09-27T13:11:25.608Z,26.40
2018-09-27T13:13:53.706Z,26.50
2018-09-27T13:16:21.831Z,26.70
2018-09-27T13:18:49.977Z,26.20
2018-09-27T13:21:18.160Z,26.50
2018-09-27T13:23:46.335Z,26.30
2018-09-27T13:26:14.506Z,26.50
2018-09-27T13:28:42.703Z,26.10
2018-09-27T13:31:10.862Z,26.00
2018-09-27T13:33:38.984Z,25.80
2018-09-27T13:36:07.363Z,25.90
2018-09-27T13:38:35.507Z,25.70
2018-09-27T13:41:03.643Z,25.80
2018-09-27T13:43:31.767Z,26.00
2018-09-27T13:45:59.942Z,25.60
2018-09-27T13:48:28.086Z,25.10
2018-09-27T13:50:56.424Z,25.00
2018-09-27T13:53:24.526Z,25.10
2018-09-27T13:55:52.717Z,25.10
2018-09-27T13:58:20.858Z,24.90
2018-09-27T14:00:48.997Z,25.10
2018-09-27T14:03:17.136Z,24.80
2018-09-27T14:05:45.280Z,24.80
2018-09-27T14:08:13.404Z,24.50
2018-09-27T14:10:41.547Z,24.30
2018-09-27T14:13:09.736Z,24.30
2018-09-27T14:15:37.862Z,24.40
2018-09-27T14:18:06.267Z,24.20
2018-09-27T14:20:34.462Z,24.20
2018-09-27T14:23:02.602Z,24.40
2018-09-27T14:25:30.753Z,24.40
2018-09-27T14:27:58.883Z,24.40
2018-09-27T14:30:27.028Z,24.30
2018-09-27T14:32:55.162Z,24.20
2018-09-27T14:35:23.295Z,24.20
2018-09-27T14:37:51.652Z,24.10
2018-09-27T14:40:19.807Z,23.90
2018-09-27T14:42:48.028Z,23.80
2018-09-27T14:45:16.188Z,24.00
2018-09-27T14:47:44.513Z,23.70
2018-09-27T14:50:12.642Z,23.70
2018-09-27T14:52:40.827Z,23.70
2018-09-27T14:55:09.004Z,23.40
2018-09-27T14:57:37.166Z,23.30
2018-09-27T15:00:05.483Z,23.20
2018-09-27T15:02:34.547Z,23.10
2018-09-27T15:05:02.703Z,23.00
2018-09-27T15:07:30.856Z,23.10
2018-09-27T15:09:59.033Z,23.20
2018-09-27T15:12:27.206Z,23.10
2018-09-27T15:14:55.318Z,23.00
2018-09-27T15:17:23.499Z,22.90
2018-09-27T15:19:51.659Z,22.90
2018-09-27T15:22:19.831Z,22.80
2018-09-27T15:24:48.017Z,22.70
2018-09-27T15:27:16.154Z,22.70
2018-09-27T15:29:44.339Z,22.60
2018-09-27T15:32:12.545Z,22.60
2018-09-27T15:34:40.719Z,22.60
2018-09-27T15:37:08.975Z,22.60
2018-09-27T15:39:37.088Z,22.50
2018-09-27T15:42:05.203Z,22.50
2018-09-27T15:44:33.355Z,22.50
2018-09-27T15:47:01.483Z,22.40
2018-09-27T15:49:29.623Z,22.40
2018-09-27T15:51:58.227Z,22.30
2018-09-27T15:54:26.795Z,22.30
2018-09-27T15:56:55.043Z,22.20
2018-09-27T15:59:23.184Z,22.10
2018-09-27T16:01:51.310Z,22.00
2018-09-27T16:04:19.447Z,21.90
2018-09-27T16:06:47.583Z,21.80
2018-09-27T16:09:15.723Z,21.80
2018-09-27T16:11:43.900Z,21.60
2018-09-27T16:14:11.981Z,21.60
2018-09-27T16:16:40.896Z,21.60
2018-09-27T16:19:09.071Z,21.50
2018-09-27T16:21:37.201Z,21.40
2018-09-27T16:24:05.335Z,21.30
2018-09-27T16:26:33.566Z,21.10
2018-09-27T16:29:01.715Z,20.80
2018-09-27T16:31:29.855Z,20.50
2018-09-27T16:33:57.991Z,20.30
2018-09-27T16:36:26.138Z,20.00
2018-09-27T16:38:54.317Z,19.60
2018-09-27T16:41:22.463Z,19.10
2018-09-27T16:43:51.029Z,18.70
2018-09-27T16:46:19.168Z,18.40
2018-09-27T16:48:47.351Z,18.10
2018-09-27T16:51:15.491Z,17.80
2018-09-27T16:53:43.677Z,17.50
2018-09-27T16:56:11.767Z,17.20
2018-09-27T16:58:39.925Z,16.90
2018-09-27T17:01:08.124Z,16.70
2018-09-27T17:03:36.294Z,16.50
2018-09-27T17:06:04.431Z,16.30
2018-09-27T17:08:32.677Z,16.20
2018-09-27T17:11:00.841Z,16.00
2018-09-27T17:13:29.095Z,15.80
2018-09-27T17:15:57.270Z,15.60
2018-09-27T17:18:25.447Z,15.50
2018-09-27T17:20:53.739Z,15.30
2018-09-27T17:23:21.896Z,15.00
2018-09-27T17:25:50.051Z,14.90
2018-09-27T17:28:18.192Z,14.70
2018-09-27T17:30:46.384Z,14.60
2018-09-27T17:33:14.579Z,14.40
2018-09-27T17:35:42.755Z,14.30
2018-09-27T17:38:10.841Z,14.10
2018-09-27T17:40:40.160Z,14.00
2018-09-27T17:43:08.215Z,13.90
2018-09-27T17:45:36.348Z,13.70
2018-09-27T17:48:04.491Z,13.60
2018-09-27T17:50:32.644Z,13.50
2018-09-27T17:53:00.831Z,13.40
2018-09-27T17:55:28.969Z,13.20
2018-09-27T17:57:57.071Z,13.10
2018-09-27T18:00:25.219Z,12.90
2018-09-27T18:02:53.347Z,12.80
2018-09-27T18:05:21.483Z,12.70
2018-09-27T18:07:49.640Z,12.60
2018-09-27T18:10:17.918Z,12.50
2018-09-27T18:12:46.087Z,12.40
2018-09-27T18:15:14.219Z,12.30
2018-09-27T18:17:42.408Z,12.20
2018-09-27T18:20:11.568Z,12.10
2018-09-27T18:22:39.768Z,12.00
2018-09-27T18:25:07.859Z,12.00
2018-09-27T18:27:36.015Z,12.00
2018-09-27T18:30:04.172Z,11.90
2018-09-27T18:32:33.352Z,11.70
2018-09-27T18:35:01.598Z,11.70
2018-09-27T18:37:30.204Z,11.60
2018-09-27T18:39:58.290Z,11.50
2018-09-27T18:42:26.439Z,11.40
2018-09-27T18:44:54.585Z,11.50
2018-09-27T18:47:23.007Z,11.40
2018-09-27T18:49:51.194Z,11.30
2018-09-27T18:52:19.351Z,11.20
2018-09-27T18:54:47.503Z,11.00
2018-09-27T18:57:15.677Z,11.10
2018-09-27T18:59:43.849Z,11.00
2018-09-27T19:02:11.998Z,10.90
2018-09-27T19:04:40.143Z,11.00
2018-09-27T19:07:08.296Z,11.00
2018-09-27T19:09:37.487Z,11.00
2018-09-27T19:12:05.627Z,11.00
2018-09-27T19:14:33.841Z,11.00
2018-09-27T19:17:02.092Z,10.90
2018-09-27T19:19:30.247Z,10.80
2018-09-27T19:21:59.492Z,10.60
2018-09-27T19:24:27.654Z,10.70
2018-09-27T19:26:55.843Z,10.50
2018-09-27T19:29:24.010Z,10.50
2018-09-27T19:31:52.199Z,10.40
2018-09-27T19:34:20.390Z,10.40
2018-09-27T19:36:48.582Z,10.30
2018-09-27T19:39:17.038Z,10.20
2018-09-27T19:41:45.196Z,10.10
2018-09-27T19:44:13.411Z,10.10
2018-09-27T19:46:41.768Z,10.10
2018-09-27T19:49:10.083Z,10.00
2018-09-27T19:51:38.238Z,10.00
2018-09-27T19:54:06.393Z,9.90
2018-09-27T19:56:34.538Z,9.80
2018-09-27T19:59:02.725Z,9.80
2018-09-27T20:01:30.918Z,9.60
2018-09-27T20:03:59.293Z,9.60
2018-09-27T20:06:27.409Z,9.60
2018-09-27T20:08:55.608Z,9.70
2018-09-27T20:11:23.768Z,9.50
2018-09-27T20:13:51.916Z,9.50
2018-09-27T20:16:20.182Z,9.40
2018-09-27T20:18:48.196Z,9.30
2018-09-27T20:21:16.363Z,9.20
2018-09-27T20:23:44.549Z,9.20
2018-09-27T20:26:12.697Z,9.10
2018-09-27T20:28:40.888Z,9.10
2018-09-27T20:31:09.019Z,9.10
2018-09-27T20:33:37.187Z,9.10
2018-09-27T20:36:05.529Z,9.10
2018-09-27T20:38:33.668Z,9.20
2018-09-27T20:41:01.824Z,9.10
2018-09-27T20:43:29.975Z,9.00
2018-09-27T20:45:58.124Z,8.90
2018-09-27T20:48:26.285Z,8.90
2018-09-27T20:50:54.418Z,8.80
2018-09-27T20:53:22.563Z,8.80
2018-09-27T20:55:51.738Z,8.80
2018-09-27T20:58:19.896Z,8.80
2018-09-27T21:00:48.091Z,8.80
2018-09-27T21:03:16.331Z,8.80
2018-09-27T21:05:44.397Z,8.70
2018-09-27T21:08:12.612Z,8.60
2018-09-27T21:10:40.795Z,8.50
2018-09-27T21:13:09.023Z,8.50
2018-09-27T21:15:37.245Z,8.50
2018-09-27T21:18:05.599Z,8.40
2018-09-27T21:20:33.767Z,8.30
2018-09-27T21:23:01.945Z,8.30
2018-09-27T21:25:30.100Z,8.30
2018-09-27T21:27:58.256Z,8.30
2018-09-27T21:30:26.450Z,8.30
2018-09-27T21:32:54.584Z,8.30
2018-09-27T21:35:22.719Z,8.30
2018-09-27T21:37:50.920Z,8.30
2018-09-27T21:40:19.107Z,8.20
2018-09-27T21:42:47.241Z,8.10
2018-09-27T21:45:15.398Z,8.20
2018-09-27T21:47:43.546Z,8.10
2018-09-27T21:50:11.811Z,8.20
2018-09-27T21:52:39.846Z,8.00
2018-09-27T21:55:08.000Z,8.20
2018-09-27T21:57:36.159Z,8.20
2018-09-27T22:00:05.264Z,8.20
2018-09-27T22:02:33.395Z,8.20
2018-09-27T22:05:01.580Z,8.10
2018-09-27T22:07:29.723Z,8.20
2018-09-27T22:09:58.307Z,8.10
2018-09-27T22:12:26.582Z,8.10
2018-09-27T22:14:55.100Z,8.10
2018-09-27T22:17:24.106Z,8.00
2018-09-27T22:19:52.263Z,8.00
2018-09-27T22:22:20.395Z,8.00
2018-09-27T22:24:48.546Z,7.90
2018-09-27T22:27:16.848Z,7.90
2018-09-27T22:29:45.044Z,7.80
2018-09-27T22:32:13.187Z,7.70
2018-09-27T22:34:41.330Z,7.60
2018-09-27T22:37:09.472Z,7.60
2018-09-27T22:39:37.615Z,7.70
2018-09-27T22:42:05.752Z,7.60
2018-09-27T22:44:33.939Z,7.40
2018-09-27T22:47:02.180Z,7.30
2018-09-27T22:49:30.336Z,7.30
2018-09-27T22:51:58.488Z,7.30
2018-09-27T22:54:26.641Z,7.30
2018-09-27T22:56:54.799Z,7.30
2018-09-27T22:59:22.933Z,7.30
2018-09-27T23:01:51.081Z,7.40
2018-09-27T23:04:19.322Z,7.30
2018-09-27T23:06:47.463Z,7.30
2018-09-27T23:09:15.648Z,7.30
2018-09-27T23:11:43.787Z,7.20
2018-09-27T23:14:11.980Z,7.20
2018-09-27T23:16:40.994Z,7.10
2018-09-27T23:19:09.139Z,7.10
2018-09-27T23:21:37.273Z,7.10
2018-09-27T23:24:05.398Z,7.10
2018-09-27T23:26:33.555Z,7.10
2018-09-27T23:29:01.727Z,7.10
2018-09-27T23:31:29.879Z,7.00
2018-09-27T23:33:58.058Z,6.90
2018-09-27T23:36:26.237Z,6.80
2018-09-27T23:38:54.386Z,6.70
2018-09-27T23:41:22.510Z,6.70
2018-09-27T23:43:50.655Z,6.70
2018-09-27T23:46:18.813Z,6.70
2018-09-27T23:48:46.940Z,6.60
2018-09-27T23:51:15.138Z,6.50
2018-09-27T23:53:43.286Z,6.50
2018-09-27T23:56:11.411Z,6.50
2018-09-27T23:58:39.606Z,6.40
